createdAt,value
2023-05-02T00:00:39.908Z,4.68
2023-05-02T00:03:44.026Z,4.57
2023-05-02T00:06:47.039Z,4.70
2023-05-02T00:09:49.828Z,4.45
2023-05-02T00:12:52.612Z,4.73
2023-05-02T00:15:55.413Z,4.60
2023-05-02T00:18:58.124Z,4.63
2023-05-02T00:22:00.869Z,4.70
2023-05-02T00:25:03.800Z,4.60
2023-05-02T00:28:06.605Z,5.10
2023-05-02T00:31:13.537Z,4.60
2023-05-02T00:34:16.449Z,4.75
2023-05-02T00:37:19.461Z,5.10
2023-05-02T00:40:22.432Z,5.20
2023-05-02T00:43:26.214Z,4.93
2023-05-02T00:46:29.895Z,5.38
2023-05-02T00:49:32.765Z,4.80
2023-05-02T00:52:35.858Z,4.95
2023-05-02T00:55:39.022Z,5.18
2023-05-02T00:58:42.502Z,5.33
2023-05-02T01:02:09.389Z,5.18
2023-05-02T01:05:21.184Z,4.72
2023-05-02T01:08:40.198Z,5.45
2023-05-02T01:11:57.160Z,5.57
2023-05-02T01:15:06.104Z,4.90
2023-05-02T01:18:14.852Z,4.95
2023-05-02T01:21:17.847Z,4.75
2023-05-02T01:24:27.886Z,5.00
2023-05-02T01:27:56.117Z,5.55
2023-05-02T01:31:00.463Z,4.83
2023-05-02T01:34:05.562Z,4.40
2023-05-02T01:37:11.484Z,5.15
2023-05-02T01:40:20.885Z,5.07
2023-05-02T01:43:24.766Z,5.38
2023-05-02T01:46:33.145Z,4.60
2023-05-02T01:49:37.108Z,5.20
2023-05-02T01:52:41.068Z,5.60
2023-05-02T01:55:46.002Z,5.03
2023-05-02T01:58:51.755Z,5.28
2023-05-02T02:01:56.087Z,5.23
2023-05-02T02:05:00.328Z,5.60
2023-05-02T02:08:03.208Z,5.15
2023-05-02T02:11:12.112Z,7.60
2023-05-02T02:14:21.608Z,8.23
2023-05-02T02:17:36.920Z,7.10
2023-05-02T02:20:44.087Z,7.22
2023-05-02T02:23:51.322Z,6.60
2023-05-02T02:26:54.253Z,5.68
2023-05-02T02:29:57.081Z,5.70
2023-05-02T02:33:00.044Z,6.23
2023-05-02T02:36:31.296Z,4.60
2023-05-02T02:39:52.652Z,5.45
2023-05-02T02:43:07.133Z,5.00
2023-05-02T02:46:28.241Z,5.18
2023-05-02T02:50:16.132Z,5.00
2023-05-02T02:53:25.642Z,5.53
2023-05-02T02:56:36.521Z,5.10
2023-05-02T02:59:47.446Z,5.55
2023-05-02T03:02:53.458Z,5.03
2023-05-02T03:05:57.382Z,4.90
2023-05-02T03:09:01.807Z,4.95
2023-05-02T03:12:06.233Z,5.55
2023-05-02T03:15:38.218Z,4.70
2023-05-02T03:18:41.588Z,4.30
2023-05-02T03:21:44.682Z,4.50
2023-05-02T03:24:52.874Z,5.07
2023-05-02T03:27:57.872Z,5.28
2023-05-02T03:31:00.896Z,4.82
2023-05-02T03:34:04.962Z,4.63
2023-05-02T03:37:07.847Z,4.50
2023-05-02T03:40:10.935Z,4.85
2023-05-02T03:43:15.622Z,5.00
2023-05-02T03:46:18.559Z,5.22
2023-05-02T03:49:22.009Z,5.47
2023-05-02T03:52:28.800Z,5.80
2023-05-02T03:55:32.392Z,5.43
2023-05-02T03:58:39.058Z,5.10
2023-05-02T04:01:41.862Z,5.70
2023-05-02T04:04:46.549Z,5.22
2023-05-02T04:07:51.862Z,5.70
2023-05-02T04:10:54.706Z,5.82
2023-05-02T04:13:57.606Z,5.72
2023-05-02T04:17:00.543Z,5.30
2023-05-02T04:20:11.818Z,5.07
2023-05-02T04:23:19.007Z,5.67
2023-05-02T04:26:24.421Z,5.43
2023-05-02T04:29:34.400Z,5.80
2023-05-02T04:32:38.203Z,5.13
2023-05-02T04:35:42.030Z,5.88
2023-05-02T04:38:47.846Z,5.10
2023-05-02T04:41:52.810Z,5.55
2023-05-02T04:44:57.977Z,5.68
2023-05-02T04:48:00.873Z,5.07
2023-05-02T04:51:03.815Z,5.45
2023-05-02T04:54:07.212Z,5.73
2023-05-02T04:57:10.416Z,5.53
2023-05-02T05:00:18.541Z,5.47
2023-05-02T05:03:22.158Z,5.55
2023-05-02T05:06:55.047Z,5.35
2023-05-02T05:09:58.913Z,4.93
2023-05-02T05:13:05.628Z,5.20
2023-05-02T05:16:09.658Z,5.18
2023-05-02T05:19:12.817Z,5.28
2023-05-02T05:22:15.717Z,4.68
2023-05-02T05:25:18.966Z,4.30
2023-05-02T05:28:23.687Z,4.60
2023-05-02T05:31:26.871Z,4.47
2023-05-02T05:34:33.207Z,4.70
2023-05-02T05:37:39.559Z,3.83
2023-05-02T05:40:44.696Z,4.37
2023-05-02T05:43:48.450Z,4.05
2023-05-02T05:46:51.830Z,4.40
2023-05-02T05:49:57.096Z,3.63
2023-05-02T05:53:04.235Z,3.78
2023-05-02T05:56:11.411Z,3.80
2023-05-02T05:59:16.603Z,3.40
2023-05-02T06:02:19.996Z,3.60
2023-05-02T06:05:22.944Z,3.72
2023-05-02T06:08:27.359Z,3.53
2023-05-02T06:11:31.261Z,3.20
2023-05-02T06:14:35.030Z,3.50
2023-05-02T06:17:37.969Z,3.83
2023-05-02T06:20:40.940Z,3.70
2023-05-02T06:23:43.726Z,3.90
2023-05-02T06:26:46.624Z,3.60
2023-05-02T06:29:53.021Z,3.40
2023-05-02T06:32:55.812Z,3.42
2023-05-02T06:36:00.800Z,3.55
2023-05-02T06:39:04.926Z,2.83
2023-05-02T06:42:07.724Z,3.43
2023-05-02T06:45:11.651Z,2.90
2023-05-02T06:48:15.525Z,3.30
2023-05-02T06:51:19.598Z,3.40
2023-05-02T06:54:22.834Z,3.03
2023-05-02T06:57:25.655Z,3.03
2023-05-02T07:00:28.496Z,3.05
2023-05-02T07:03:31.308Z,2.80
2023-05-02T07:06:34.693Z,2.92
2023-05-02T07:09:37.467Z,2.70
2023-05-02T07:12:40.382Z,2.70
2023-05-02T07:15:43.966Z,8.15
2023-05-02T07:18:47.139Z,3.42
2023-05-02T07:21:50.541Z,2.70
2023-05-02T07:25:02.152Z,2.85
2023-05-02T07:28:05.553Z,4.90
2023-05-02T07:31:08.354Z,2.80
2023-05-02T07:34:11.320Z,2.72
2023-05-02T07:37:14.328Z,3.60
2023-05-02T07:40:17.216Z,7.00
2023-05-02T07:43:21.245Z,2.63
2023-05-02T07:46:24.509Z,2.65
2023-05-02T07:49:27.394Z,2.70
2023-05-02T07:52:30.815Z,2.83
2023-05-02T07:55:33.767Z,3.08
2023-05-02T07:58:39.428Z,2.47
2023-05-02T08:01:42.203Z,2.75
2023-05-02T08:04:45.241Z,2.38
2023-05-02T08:07:48.163Z,2.63
2023-05-02T08:10:51.567Z,3.03
2023-05-02T08:13:55.068Z,2.50
2023-05-02T08:16:58.914Z,3.22
2023-05-02T08:20:02.051Z,3.20
2023-05-02T08:23:05.358Z,3.13
2023-05-02T08:26:08.423Z,3.20
2023-05-02T08:29:13.018Z,3.43
2023-05-02T08:32:16.250Z,2.85
2023-05-02T08:35:19.110Z,3.20
2023-05-02T08:38:21.908Z,2.90
2023-05-02T08:41:25.443Z,3.25
2023-05-02T08:44:28.366Z,3.03
2023-05-02T08:47:32.621Z,3.00
2023-05-02T08:50:44.703Z,3.53
2023-05-02T08:53:49.458Z,3.20
2023-05-02T08:56:54.079Z,3.15
2023-05-02T08:59:57.204Z,2.70
2023-05-02T09:03:09.235Z,3.15
2023-05-02T09:06:16.039Z,3.35
2023-05-02T09:09:19.298Z,3.53
2023-05-02T09:12:27.001Z,3.83
2023-05-02T09:15:29.955Z,3.40
2023-05-02T09:18:46.029Z,3.22
2023-05-02T09:21:49.149Z,3.30
2023-05-02T09:24:55.798Z,3.20
2023-05-02T09:28:01.579Z,3.08
2023-05-02T09:31:11.990Z,3.30
2023-05-02T09:34:17.797Z,3.30
2023-05-02T09:37:36.281Z,3.30
2023-05-02T09:40:39.187Z,2.65
2023-05-02T09:43:42.224Z,3.10
2023-05-02T09:46:53.063Z,3.07
2023-05-02T09:49:55.777Z,3.60
2023-05-02T09:53:09.933Z,3.40
2023-05-02T09:56:12.765Z,3.05
2023-05-02T09:59:19.319Z,3.17
2023-05-02T10:02:22.961Z,4.00
2023-05-02T10:05:27.799Z,3.38
2023-05-02T10:08:33.863Z,3.05
2023-05-02T10:11:40.416Z,3.40
2023-05-02T10:14:56.706Z,3.38
2023-05-02T10:18:01.446Z,3.40
2023-05-02T10:21:18.879Z,3.45
2023-05-02T10:24:21.962Z,4.05
2023-05-02T10:27:24.904Z,3.85
2023-05-02T10:30:28.222Z,3.97
2023-05-02T10:33:34.326Z,3.60
2023-05-02T10:36:37.111Z,3.33
2023-05-02T10:39:40.282Z,3.72
2023-05-02T10:42:46.732Z,3.88
2023-05-02T10:45:49.716Z,4.20
2023-05-02T10:49:18.545Z,3.97
2023-05-02T10:52:32.947Z,3.47
2023-05-02T10:55:35.747Z,3.20
2023-05-02T10:58:38.856Z,3.72
2023-05-02T11:01:42.999Z,3.63
2023-05-02T11:05:04.526Z,3.77
2023-05-02T11:08:17.982Z,3.60
2023-05-02T11:11:41.578Z,3.63
2023-05-02T11:14:47.542Z,3.33
2023-05-02T11:18:01.870Z,3.55
2023-05-02T11:21:30.149Z,3.73
2023-05-02T11:24:44.835Z,4.28
2023-05-02T11:27:49.403Z,4.30
2023-05-02T11:30:52.174Z,3.92
2023-05-02T11:34:04.711Z,3.90
2023-05-02T11:37:15.568Z,4.80
2023-05-02T11:40:18.640Z,3.80
2023-05-02T11:43:22.088Z,3.90
2023-05-02T11:46:25.013Z,3.78
2023-05-02T11:49:28.012Z,4.10
2023-05-02T11:52:31.802Z,4.20
2023-05-02T11:55:35.623Z,4.55
2023-05-02T11:58:38.469Z,4.30
2023-05-02T12:01:49.474Z,4.30
2023-05-02T12:04:52.181Z,4.20
2023-05-02T12:07:54.922Z,4.07
2023-05-02T12:10:58.082Z,4.05
2023-05-02T12:14:02.335Z,4.32
2023-05-02T12:17:06.943Z,4.05
2023-05-02T12:20:11.706Z,4.63
2023-05-02T12:23:14.668Z,3.83
2023-05-02T12:26:18.541Z,4.13
2023-05-02T12:29:21.495Z,4.05
2023-05-02T12:32:30.081Z,3.78
2023-05-02T12:35:34.898Z,4.00
2023-05-02T12:38:37.740Z,3.93
2023-05-02T12:41:46.041Z,4.18
2023-05-02T12:44:52.409Z,4.07
2023-05-02T12:47:56.034Z,3.92
2023-05-02T12:50:58.823Z,4.30
2023-05-02T12:54:01.832Z,4.50
2023-05-02T12:57:04.728Z,4.22
2023-05-02T13:00:08.601Z,4.38
2023-05-02T13:03:11.509Z,4.32
2023-05-02T13:06:14.367Z,3.97
2023-05-02T13:09:18.401Z,3.83
2023-05-02T13:12:21.560Z,4.97
2023-05-02T13:15:24.461Z,4.60
2023-05-02T13:18:30.340Z,4.22
2023-05-02T13:21:33.116Z,4.07
2023-05-02T13:24:36.351Z,4.43
2023-05-02T13:27:40.176Z,4.93
2023-05-02T13:30:43.027Z,4.28
2023-05-02T13:33:46.081Z,4.53
2023-05-02T13:36:48.855Z,4.95
2023-05-02T13:39:51.724Z,4.60
2023-05-02T13:42:54.570Z,4.43
2023-05-02T13:45:57.714Z,5.18
2023-05-02T13:49:00.841Z,4.55
2023-05-02T13:52:04.469Z,5.05
2023-05-02T13:55:08.271Z,4.30
2023-05-02T13:58:11.024Z,4.50
2023-05-02T14:01:13.881Z,4.40
2023-05-02T14:04:16.654Z,5.57
2023-05-02T14:07:19.409Z,4.43
2023-05-02T14:10:22.300Z,4.13
2023-05-02T14:13:25.578Z,5.00
2023-05-02T14:16:28.594Z,5.03
2023-05-02T14:19:31.560Z,5.00
2023-05-02T14:22:34.502Z,4.57
2023-05-02T14:25:37.396Z,5.60
2023-05-02T14:28:41.029Z,4.55
2023-05-02T14:31:49.081Z,4.72
2023-05-02T14:34:52.071Z,4.05
2023-05-02T14:37:54.828Z,5.45
2023-05-02T14:40:57.673Z,5.23
2023-05-02T14:44:00.549Z,5.00
2023-05-02T14:47:03.474Z,5.35
2023-05-02T14:50:08.113Z,5.82
2023-05-02T14:53:12.099Z,5.03
2023-05-02T14:56:17.250Z,5.23
2023-05-02T14:59:21.212Z,4.93
2023-05-02T15:02:24.065Z,4.88
2023-05-02T15:05:27.035Z,4.90
2023-05-02T15:08:30.284Z,5.25
2023-05-02T15:11:33.234Z,5.07
2023-05-02T15:14:35.993Z,5.18
2023-05-02T15:17:39.399Z,5.85
2023-05-02T15:20:42.693Z,5.50
2023-05-02T15:23:46.280Z,5.13
2023-05-02T15:26:49.383Z,4.87
2023-05-02T15:29:53.188Z,5.00
2023-05-02T15:32:56.203Z,5.28
2023-05-02T15:35:59.038Z,5.30
2023-05-02T15:39:01.861Z,4.63
2023-05-02T15:42:06.332Z,4.63
2023-05-02T15:45:13.531Z,4.63
2023-05-02T15:48:16.369Z,4.90
2023-05-02T15:51:19.216Z,6.97
2023-05-02T15:54:22.463Z,5.35
2023-05-02T15:57:26.416Z,4.97
2023-05-02T16:00:29.436Z,4.70
2023-05-02T16:03:32.792Z,6.00
2023-05-02T16:06:36.478Z,6.30
2023-05-02T16:09:41.957Z,5.72
2023-05-02T16:12:44.757Z,6.40
2023-05-02T16:15:48.476Z,5.40
2023-05-02T16:18:51.496Z,5.93
2023-05-02T16:21:54.417Z,6.47
2023-05-02T16:24:57.183Z,6.75
2023-05-02T16:28:00.195Z,7.13
2023-05-02T16:31:07.939Z,6.50
2023-05-02T16:34:11.367Z,6.18
2023-05-02T16:37:14.261Z,5.68
2023-05-02T16:40:17.358Z,6.43
2023-05-02T16:43:20.349Z,5.70
2023-05-02T16:46:23.376Z,4.97
2023-05-02T16:49:26.231Z,5.38
2023-05-02T16:52:29.263Z,4.60
2023-05-02T16:55:32.131Z,4.95
2023-05-02T16:58:34.982Z,4.87
2023-05-02T17:01:38.356Z,5.40
2023-05-02T17:04:42.071Z,6.10
2023-05-02T17:07:45.192Z,6.20
2023-05-02T17:10:49.739Z,6.32
2023-05-02T17:13:52.680Z,6.60
2023-05-02T17:16:55.624Z,7.30
2023-05-02T17:19:58.527Z,7.55
2023-05-02T17:23:02.356Z,7.30
2023-05-02T17:26:13.967Z,7.32
2023-05-02T17:29:16.747Z,7.10
2023-05-02T17:32:19.515Z,7.68
2023-05-02T17:35:22.344Z,12.75
2023-05-02T17:38:26.816Z,12.57
2023-05-02T17:41:30.525Z,14.07
2023-05-02T17:44:36.173Z,19.43
2023-05-02T17:47:39.149Z,11.48
2023-05-02T17:50:42.249Z,9.35
2023-05-02T17:53:45.050Z,8.27
2023-05-02T17:56:47.976Z,8.57
2023-05-02T17:59:53.193Z,8.57
2023-05-02T18:02:56.736Z,8.48
2023-05-02T18:06:00.187Z,9.00
2023-05-02T18:09:03.058Z,8.77
2023-05-02T18:12:13.584Z,8.18
2023-05-02T18:15:16.471Z,8.70
2023-05-02T18:18:19.351Z,8.45
2023-05-02T18:21:22.958Z,8.45
2023-05-02T18:24:25.937Z,8.38
2023-05-02T18:27:28.821Z,8.85
2023-05-02T18:30:31.758Z,8.67
2023-05-02T18:33:34.739Z,9.05
2023-05-02T18:36:37.703Z,8.32
2023-05-02T18:39:40.740Z,9.07
2023-05-02T18:42:43.858Z,9.43
2023-05-02T18:45:46.647Z,8.77
2023-05-02T18:48:50.070Z,9.25
2023-05-02T18:51:54.515Z,9.75
2023-05-02T18:54:57.462Z,9.90
2023-05-02T18:58:00.224Z,10.07
2023-05-02T19:01:12.216Z,9.27
2023-05-02T19:04:15.424Z,9.23
2023-05-02T19:07:18.402Z,8.60
2023-05-02T19:10:21.286Z,8.65
2023-05-02T19:13:27.145Z,9.00
2023-05-02T19:16:31.753Z,9.67
2023-05-02T19:19:34.842Z,9.93
2023-05-02T19:22:38.383Z,9.55
2023-05-02T19:25:42.010Z,9.75
2023-05-02T19:28:45.641Z,9.40
2023-05-02T19:31:48.779Z,8.70
2023-05-02T19:34:51.629Z,9.07
2023-05-02T19:37:54.520Z,10.70
2023-05-02T19:40:57.358Z,8.85
2023-05-02T19:44:01.204Z,8.40
2023-05-02T19:47:04.361Z,8.60
2023-05-02T19:50:07.976Z,9.02
2023-05-02T19:53:10.835Z,8.45
2023-05-02T19:56:14.298Z,9.45
2023-05-02T19:59:17.478Z,8.75
2023-05-02T20:02:20.623Z,9.13
2023-05-02T20:05:23.772Z,9.00
2023-05-02T20:08:28.214Z,9.15
2023-05-02T20:11:32.850Z,9.07
2023-05-02T20:14:35.782Z,10.30
2023-05-02T20:17:39.188Z,9.17
2023-05-02T20:20:42.121Z,9.15
2023-05-02T20:23:45.284Z,11.00
2023-05-02T20:26:49.267Z,9.85
2023-05-02T20:29:52.206Z,9.77
2023-05-02T20:32:55.784Z,9.90
2023-05-02T20:35:59.005Z,12.63
2023-05-02T20:39:04.773Z,9.88
2023-05-02T20:42:07.711Z,10.65
2023-05-02T20:45:14.068Z,11.20
2023-05-02T20:48:18.347Z,11.87
2023-05-02T20:51:21.650Z,10.80
2023-05-02T20:54:24.712Z,11.50
2023-05-02T20:57:27.551Z,12.15
2023-05-02T21:00:30.370Z,11.70
2023-05-02T21:03:36.787Z,11.30
2023-05-02T21:06:39.583Z,12.10
2023-05-02T21:09:42.488Z,11.35
2023-05-02T21:12:45.384Z,12.27
2023-05-02T21:15:48.214Z,11.10
2023-05-02T21:18:52.840Z,11.37
2023-05-02T21:21:55.921Z,12.02
2023-05-02T21:24:58.739Z,12.55
2023-05-02T21:28:01.639Z,11.50
2023-05-02T21:31:04.757Z,12.82
2023-05-02T21:34:07.622Z,13.30
2023-05-02T21:37:10.475Z,12.00
2023-05-02T21:40:13.695Z,13.30
2023-05-02T21:43:16.807Z,12.40
2023-05-02T21:46:19.795Z,11.77
2023-05-02T21:49:23.107Z,12.00
2023-05-02T21:52:25.929Z,12.93
2023-05-02T21:55:28.720Z,13.32
2023-05-02T21:58:31.487Z,11.43
2023-05-02T22:01:34.423Z,12.80
2023-05-02T22:04:37.249Z,12.17
2023-05-02T22:07:40.082Z,12.48
2023-05-02T22:10:44.031Z,11.85
2023-05-02T22:13:46.832Z,11.45
2023-05-02T22:16:51.105Z,12.18
2023-05-02T22:19:53.966Z,11.10
2023-05-02T22:22:56.780Z,10.93
2023-05-02T22:25:59.652Z,13.80
2023-05-02T22:29:03.020Z,12.75
2023-05-02T22:32:06.089Z,14.30
2023-05-02T22:35:09.256Z,11.97
2023-05-02T22:38:15.525Z,12.18
2023-05-02T22:41:18.273Z,13.50
2023-05-02T22:44:21.249Z,13.75
2023-05-02T22:47:24.109Z,12.77
2023-05-02T22:50:28.067Z,15.67
2023-05-02T22:53:31.481Z,13.77
2023-05-02T22:56:34.656Z,13.82
2023-05-02T22:59:37.570Z,16.08
2023-05-02T23:02:40.409Z,16.42
2023-05-02T23:05:43.239Z,15.23
2023-05-02T23:08:46.110Z,15.52
2023-05-02T23:11:48.804Z,15.75
2023-05-02T23:14:51.879Z,16.90
2023-05-02T23:17:54.583Z,16.83
2023-05-02T23:20:57.676Z,18.17
2023-05-02T23:24:00.525Z,17.92
2023-05-02T23:27:03.834Z,15.65
2023-05-02T23:30:07.996Z,16.13
2023-05-02T23:33:11.236Z,14.07
2023-05-02T23:36:14.514Z,13.83
2023-05-02T23:39:17.456Z,14.50
2023-05-02T23:42:20.292Z,13.90
2023-05-02T23:45:23.145Z,13.23
2023-05-02T23:48:26.016Z,12.35
2023-05-02T23:51:28.777Z,11.40
2023-05-02T23:54:33.656Z,11.73
2023-05-02T23:57:37.256Z,11.40
